Time;durP1;ratioP1;P1;durP2;ratioP2;P2;SDS_P1;SDS_P2;PMS_P1;PMS_P2;Temp;Humidity;BMP_temperature;BMP_pressure;BME280_temperature;BME280_humidity;BME280_pressure;Samples;Min_cycle;Max_cycle;Signal;HPM_P1;HPM_P2
2022/03/28 00:01:51;;;;;;;12.23;6.80;;;6.60;99.90;;;;;;5045976;28;20052;-36
2022/03/28 00:04:17;;;;;;;10.47;6.27;;;6.70;99.90;;;;;;5054693;28;20133;-35
2022/03/28 00:06:43;;;;;;;10.37;6.30;;;6.70;99.90;;;;;;5034969;28;20220;-34
2022/03/28 00:09:09;;;;;;;8.73;5.93;;;6.60;99.90;;;;;;5044020;28;20141;-35
2022/03/28 00:11:34;;;;;;;8.03;5.50;;;6.60;99.90;;;;;;5048210;28;20057;-35
2022/03/28 00:14:00;;;;;;;8.03;5.80;;;6.60;99.90;;;;;;5065320;28;20135;-33
2022/03/28 00:16:26;;;;;;;11.50;5.83;;;6.60;99.90;;;;;;5045561;28;20588;-36
2022/03/28 00:18:52;;;;;;;9.83;6.20;;;6.50;99.90;;;;;;5062011;28;20125;-34
2022/03/28 00:21:18;;;;;;;9.77;5.97;;;6.50;99.90;;;;;;5067063;28;20045;-35
2022/03/28 00:23:44;;;;;;;8.70;6.07;;;6.50;99.90;;;;;;5054227;28;20060;-31
2022/03/28 00:26:10;;;;;;;7.47;5.73;;;6.50;99.90;;;;;;5038439;28;20056;-34
2022/03/28 00:28:35;;;;;;;12.10;6.30;;;6.50;99.90;;;;;;5048187;28;20053;-33
2022/03/28 00:31:01;;;;;;;9.37;5.97;;;6.50;99.90;;;;;;5066495;28;20166;-36
2022/03/28 00:33:26;;;;;;;7.97;5.40;;;6.50;99.90;;;;;;5064895;28;20044;-36
2022/03/28 00:35:52;;;;;;;9.10;5.27;;;6.40;99.90;;;;;;5065602;28;20040;-35
2022/03/28 00:38:18;;;;;;;12.17;5.83;;;6.40;99.90;;;;;;5050505;28;20052;-36
2022/03/28 00:40:44;;;;;;;11.07;6.30;;;6.40;99.90;;;;;;5055139;28;20052;-34
2022/03/28 00:43:10;;;;;;;9.47;5.70;;;6.40;99.90;;;;;;5045945;28;20413;-32
2022/03/28 00:45:38;;;;;;;10.77;6.53;;;6.50;99.90;;;;;;5044659;28;20163;-32
2022/03/28 00:48:05;;;;;;;8.50;6.10;;;6.40;99.90;;;;;;5030006;28;20041;-34
2022/03/28 00:50:32;;;;;;;13.27;6.40;;;6.40;99.90;;;;;;5056360;28;20052;-36
2022/03/28 00:52:59;;;;;;;10.93;6.70;;;6.50;99.90;;;;;;5046675;28;20049;-33
2022/03/28 00:55:25;;;;;;;11.83;6.60;;;6.40;99.90;;;;;;5056935;28;20075;-35
2022/03/28 00:57:51;;;;;;;11.60;6.10;;;6.40;99.90;;;;;;5035172;28;20056;-33
2022/03/28 01:00:18;;;;;;;10.60;6.43;;;6.40;99.90;;;;;;5053883;28;20040;-35
2022/03/28 01:02:44;;;;;;;11.83;6.20;;;6.40;99.90;;;;;;5045205;28;20068;-33
2022/03/28 01:05:10;;;;;;;9.93;6.57;;;6.40;99.90;;;;;;5052353;28;20041;-34
2022/03/28 01:07:38;;;;;;;9.23;6.53;;;6.40;99.90;;;;;;5048688;28;20061;-36
2022/03/28 01:10:05;;;;;;;13.50;7.43;;;6.40;99.90;;;;;;5058717;28;20049;-33
2022/03/28 01:12:32;;;;;;;13.77;7.50;;;6.40;99.90;;;;;;5044638;28;20048;-35
2022/03/28 01:14:59;;;;;;;10.17;7.30;;;6.50;99.90;;;;;;5045488;28;20057;-32
2022/03/28 01:20:10;;;;;;;9.67;7.03;;;6.30;99.90;;;;;;5056293;28;20059;-33
2022/03/28 01:22:36;;;;;;;12.40;7.40;;;6.30;99.90;;;;;;5064265;28;20040;-35
2022/03/28 01:25:05;;;;;;;12.63;8.30;;;6.30;99.90;;;;;;5059883;28;20072;-34
2022/03/28 01:27:32;;;;;;;11.77;8.60;;;6.30;99.90;;;;;;5030839;28;20455;-38
2022/03/28 01:29:58;;;;;;;13.73;9.33;;;6.30;99.90;;;;;;5045030;28;20500;-36
2022/03/28 01:32:24;;;;;;;11.33;8.63;;;6.30;99.90;;;;;;5043063;28;20056;-34
2022/03/28 01:34:49;;;;;;;13.43;8.97;;;6.20;99.90;;;;;;5044662;28;20049;-35
2022/03/28 01:37:15;;;;;;;13.03;9.20;;;6.30;99.90;;;;;;5029778;28;20037;-36
2022/03/28 01:39:41;;;;;;;14.17;9.40;;;6.30;99.90;;;;;;5043553;28;20375;-33
2022/03/28 01:42:07;;;;;;;13.37;10.30;;;6.30;99.90;;;;;;5044121;28;20055;-33
2022/03/28 01:44:33;;;;;;;18.87;10.20;;;6.30;99.90;;;;;;5045030;28;20041;-34
2022/03/28 01:46:58;;;;;;;13.70;9.30;;;6.30;99.90;;;;;;5047771;28;20067;-34
2022/03/28 01:49:24;;;;;;;16.97;10.40;;;6.30;99.90;;;;;;5059470;28;20048;-36
2022/03/28 01:51:50;;;;;;;14.57;9.37;;;6.30;99.90;;;;;;5062600;28;20041;-33
2022/03/28 01:54:17;;;;;;;17.93;10.27;;;6.40;99.90;;;;;;5064332;28;20530;-35
2022/03/28 01:56:43;;;;;;;14.80;9.77;;;6.30;99.90;;;;;;5033236;28;20520;-35
2022/03/28 01:59:10;;;;;;;15.33;9.13;;;6.30;99.90;;;;;;5041953;28;20049;-35
2022/03/28 02:01:36;;;;;;;13.33;8.93;;;6.30;99.90;;;;;;5043931;28;20329;-33
2022/03/28 02:04:02;;;;;;;13.70;8.50;;;6.30;99.90;;;;;;5044010;28;20045;-35
2022/03/28 02:06:28;;;;;;;14.67;8.93;;;6.30;99.90;;;;;;5041208;28;20670;-34
2022/03/28 02:08:54;;;;;;;11.70;8.10;;;6.30;99.90;;;;;;5040232;28;20076;-33
2022/03/28 02:11:20;;;;;;;13.70;8.37;;;6.30;99.90;;;;;;5043449;28;20271;-32
2022/03/28 02:13:47;;;;;;;15.27;8.07;;;6.30;99.90;;;;;;5060137;28;20196;-35
2022/03/28 02:16:13;;;;;;;14.73;7.47;;;6.20;99.90;;;;;;5054560;28;20048;-37
2022/03/28 02:18:38;;;;;;;10.63;7.73;;;6.30;99.90;;;;;;5056584;28;20052;-36
2022/03/28 02:21:05;;;;;;;11.37;7.73;;;6.20;99.90;;;;;;5063462;28;20056;-35
2022/03/28 02:23:31;;;;;;;11.03;7.80;;;6.20;99.90;;;;;;5044781;28;20045;-34
2022/03/28 02:25:57;;;;;;;12.77;7.73;;;6.20;99.90;;;;;;5043784;28;20107;-36
2022/03/28 02:28:24;;;;;;;12.27;7.47;;;6.20;99.90;;;;;;5027925;28;20095;-36
2022/03/28 02:30:49;;;;;;;13.57;7.83;;;6.20;99.90;;;;;;5043633;28;20073;-36
2022/03/28 02:33:15;;;;;;;12.83;7.50;;;6.20;99.90;;;;;;5051438;28;20050;-33
2022/03/28 02:35:42;;;;;;;12.63;6.87;;;6.20;99.90;;;;;;5047939;28;20128;-33
2022/03/28 02:38:08;;;;;;;9.67;7.20;;;6.20;99.90;;;;;;5027374;28;20407;-34
2022/03/28 02:40:35;;;;;;;10.40;7.30;;;6.20;99.90;;;;;;5040852;28;20470;-35
2022/03/28 02:43:02;;;;;;;10.60;6.67;;;6.10;99.90;;;;;;5046260;28;20044;-32
2022/03/28 02:45:33;;;;;;;10.87;7.30;;;6.10;99.90;;;;;;5043295;28;20134;-35
2022/03/28 02:47:59;;;;;;;10.63;7.70;;;6.10;99.90;;;;;;5045810;28;20475;-32
2022/03/28 02:50:26;;;;;;;13.03;7.57;;;6.10;99.90;;;;;;5044808;28;20037;-35
2022/03/28 02:52:52;;;;;;;10.23;6.97;;;6.10;99.90;;;;;;5063094;28;20102;-34
2022/03/28 02:55:18;;;;;;;9.60;6.80;;;6.10;99.90;;;;;;5047667;28;20044;-35
2022/03/28 02:57:43;;;;;;;12.50;7.67;;;6.10;99.90;;;;;;5043645;28;20653;-36
2022/03/28 03:00:10;;;;;;;13.20;6.90;;;6.10;99.90;;;;;;5049923;28;20072;-35
2022/03/28 03:02:38;;;;;;;9.73;7.43;;;6.10;99.90;;;;;;5062383;28;20487;-36
2022/03/28 03:05:05;;;;;;;10.90;7.57;;;6.20;99.90;;;;;;5047905;28;20530;-35
2022/03/28 03:07:31;;;;;;;14.17;7.27;;;6.10;99.90;;;;;;5026753;28;20484;-34
2022/03/28 03:09:57;;;;;;;11.33;7.57;;;6.10;99.90;;;;;;5043109;28;20041;-35
2022/03/28 03:12:22;;;;;;;14.10;8.03;;;6.10;99.90;;;;;;5042725;28;20041;-35
2022/03/28 03:14:48;;;;;;;9.43;7.67;;;6.10;99.90;;;;;;5043158;28;20534;-33
2022/03/28 03:17:14;;;;;;;12.53;8.30;;;6.10;99.90;;;;;;5046303;28;20577;-36
2022/03/28 03:19:40;;;;;;;13.93;8.47;;;6.10;99.90;;;;;;5062998;28;20048;-35
2022/03/28 03:22:07;;;;;;;12.13;8.80;;;6.10;99.90;;;;;;5062285;28;20684;-36
2022/03/28 03:24:34;;;;;;;14.03;8.43;;;6.10;99.90;;;;;;5061923;28;20411;-35
2022/03/28 03:27:00;;;;;;;15.60;9.97;;;6.10;99.90;;;;;;5035406;28;20051;-36
2022/03/28 03:29:27;;;;;;;15.10;9.33;;;6.10;99.90;;;;;;5061971;28;20712;-34
2022/03/28 03:31:52;;;;;;;13.93;8.70;;;6.10;99.90;;;;;;5063118;28;20041;-36
2022/03/28 03:34:19;;;;;;;15.70;9.90;;;6.10;99.90;;;;;;5062388;28;20422;-35
2022/03/28 03:36:45;;;;;;;16.53;9.40;;;6.00;99.90;;;;;;5048133;28;20044;-35
2022/03/28 03:39:11;;;;;;;14.97;9.80;;;6.10;99.90;;;;;;5041370;28;20060;-33
2022/03/28 03:41:37;;;;;;;16.30;10.30;;;6.00;99.90;;;;;;5041918;28;20420;-36
2022/03/28 03:44:03;;;;;;;15.43;11.03;;;6.00;99.90;;;;;;5041007;28;20045;-34
2022/03/28 03:46:28;;;;;;;12.33;10.07;;;6.00;99.90;;;;;;5030240;28;20081;-35
2022/03/28 03:48:54;;;;;;;20.37;11.30;;;6.10;99.90;;;;;;5044195;28;20569;-33
2022/03/28 03:51:20;;;;;;;21.83;11.67;;;6.00;99.90;;;;;;5063155;28;20569;-34
2022/03/28 03:53:46;;;;;;;18.47;11.87;;;6.10;99.90;;;;;;5062365;28;20476;-35
2022/03/28 03:56:11;;;;;;;16.73;10.90;;;6.00;99.90;;;;;;5045327;28;20132;-34
2022/03/28 03:58:37;;;;;;;18.07;11.07;;;6.00;99.90;;;;;;5035399;28;20056;-36
2022/03/28 04:01:04;;;;;;;16.63;10.20;;;6.00;99.90;;;;;;5054392;28;20513;-34
2022/03/28 04:03:29;;;;;;;17.43;11.53;;;6.00;99.90;;;;;;5062173;28;20474;-36
2022/03/28 04:05:55;;;;;;;16.03;10.27;;;6.00;99.90;;;;;;5044700;28;20149;-36
2022/03/28 04:08:21;;;;;;;16.43;10.97;;;6.00;99.90;;;;;;5030469;28;20095;-33
2022/03/28 04:10:46;;;;;;;18.57;10.07;;;6.00;99.90;;;;;;5051310;28;20050;-35
2022/03/28 04:13:14;;;;;;;17.57;9.43;;;6.00;99.90;;;;;;5046264;28;20053;-35
2022/03/28 04:15:39;;;;;;;16.63;8.67;;;6.00;99.90;;;;;;5046358;28;20053;-34
2022/03/28 04:18:05;;;;;;;12.63;9.27;;;6.00;99.90;;;;;;5030614;28;20044;-37
2022/03/28 04:20:32;;;;;;;11.20;6.53;;;5.90;99.90;;;;;;5045245;28;20573;-35
2022/03/28 04:22:58;;;;;;;8.83;5.37;;;5.90;99.90;;;;;;5045753;28;20053;-34
2022/03/28 04:25:24;;;;;;;10.10;4.40;;;5.90;99.90;;;;;;5044925;28;20599;-33
2022/03/28 04:27:50;;;;;;;5.67;4.03;;;5.80;99.90;;;;;;5047457;28;20127;-35
2022/03/28 04:30:15;;;;;;;6.73;4.13;;;5.80;99.90;;;;;;5066329;28;20760;-33
2022/03/28 04:32:42;;;;;;;7.83;4.70;;;5.80;99.90;;;;;;5046568;28;20443;-35
2022/03/28 04:35:08;;;;;;;6.03;4.03;;;5.80;99.90;;;;;;5046275;28;20526;-34
2022/03/28 04:37:36;;;;;;;5.73;3.77;;;5.70;99.90;;;;;;5029899;28;20508;-34
2022/03/28 04:40:04;;;;;;;6.00;3.60;;;5.70;99.90;;;;;;5045610;28;20033;-33
2022/03/28 04:42:31;;;;;;;5.97;3.20;;;5.70;99.90;;;;;;5044052;28;20423;-35
2022/03/28 04:44:56;;;;;;;5.07;2.93;;;5.60;99.90;;;;;;5048125;28;20559;-32
2022/03/28 04:47:22;;;;;;;4.40;2.80;;;5.60;99.90;;;;;;5028379;28;20128;-34
2022/03/28 04:49:48;;;;;;;4.27;2.30;;;5.60;99.90;;;;;;5059122;28;20088;-34
2022/03/28 04:52:14;;;;;;;4.10;2.50;;;5.50;99.90;;;;;;5065744;28;20040;-34
2022/03/28 04:54:40;;;;;;;4.10;2.50;;;5.60;99.90;;;;;;5046292;28;20563;-35
2022/03/28 04:57:06;;;;;;;4.93;2.67;;;5.50;99.90;;;;;;5029521;28;20041;-32
2022/03/28 04:59:32;;;;;;;5.07;2.90;;;5.50;99.90;;;;;;5044779;28;20051;-33
2022/03/28 05:01:59;;;;;;;4.50;2.80;;;5.50;99.90;;;;;;5063831;28;20044;-34
2022/03/28 05:04:25;;;;;;;3.37;2.33;;;5.40;99.90;;;;;;5046340;28;20057;-35
2022/03/28 05:06:51;;;;;;;3.43;2.23;;;5.50;99.90;;;;;;5038357;28;20037;-34
2022/03/28 05:09:17;;;;;;;3.03;2.00;;;5.40;99.90;;;;;;5044720;28;20053;-36
2022/03/28 05:11:44;;;;;;;3.93;2.10;;;5.50;99.90;;;;;;5042402;28;20443;-35
2022/03/28 05:14:10;;;;;;;3.10;2.00;;;5.40;99.90;;;;;;5044346;28;20484;-34
2022/03/28 05:16:36;;;;;;;3.27;2.30;;;5.60;99.90;;;;;;5031763;28;21638;-35
2022/03/28 05:19:02;;;;;;;3.77;2.20;;;5.40;99.90;;;;;;5042670;28;20049;-31
2022/03/28 05:21:27;;;;;;;3.57;2.37;;;5.40;99.90;;;;;;5058683;28;20222;-35
2022/03/28 05:23:56;;;;;;;6.13;3.10;;;5.40;99.90;;;;;;5064625;28;20779;-36
2022/03/28 05:26:22;;;;;;;4.90;3.20;;;5.40;99.90;;;;;;5035829;28;20076;-35
2022/03/28 05:28:48;;;;;;;6.03;3.73;;;5.40;99.90;;;;;;5040834;28;20084;-35
2022/03/28 05:31:13;;;;;;;6.03;3.50;;;5.40;99.90;;;;;;5046655;28;20053;-35
2022/03/28 05:33:40;;;;;;;5.53;3.63;;;5.40;99.90;;;;;;5045219;28;20085;-32
2022/03/28 05:36:07;;;;;;;5.93;3.60;;;5.40;99.90;;;;;;5043327;28;20045;-34
2022/03/28 05:38:33;;;;;;;5.30;3.50;;;5.50;99.90;;;;;;5033907;28;20052;-31
2022/03/28 05:40:58;;;;;;;6.53;4.20;;;5.40;99.90;;;;;;5045337;28;20049;-34
2022/03/28 05:43:25;;;;;;;7.73;4.40;;;5.40;99.90;;;;;;5043795;28;20496;-34
2022/03/28 05:45:52;;;;;;;7.00;4.67;;;5.40;99.90;;;;;;5049403;28;20045;-33
2022/03/28 05:48:19;;;;;;;9.30;5.90;;;5.40;99.90;;;;;;5032352;28;20412;-31
2022/03/28 05:50:46;;;;;;;9.33;6.60;;;5.40;99.90;;;;;;5050690;28;20059;-32
2022/03/28 05:53:13;;;;;;;11.17;6.70;;;5.40;99.90;;;;;;5044855;28;20087;-33
2022/03/28 05:55:43;;;;;;;11.47;7.53;;;5.40;99.90;;;;;;5044962;28;20076;-34
2022/03/28 05:58:09;;;;;;;11.23;7.73;;;5.40;99.90;;;;;;5031706;28;20130;-35
2022/03/28 06:00:39;;;;;;;12.37;8.30;;;5.50;99.90;;;;;;5053731;28;20477;-33
2022/03/28 06:03:05;;;;;;;13.00;8.50;;;5.40;99.90;;;;;;5063623;28;20056;-34
2022/03/28 06:05:36;;;;;;;13.03;8.97;;;5.40;99.90;;;;;;5045505;28;20036;-34
2022/03/28 06:08:02;;;;;;;12.43;8.60;;;5.40;99.90;;;;;;5031642;28;20049;-34
2022/03/28 06:10:29;;;;;;;12.07;9.40;;;5.40;99.90;;;;;;5024585;28;20045;-33
2022/03/28 06:12:55;;;;;;;12.80;9.33;;;5.50;99.90;;;;;;5043729;28;20059;-33
2022/03/28 06:15:20;;;;;;;13.87;9.33;;;5.40;99.90;;;;;;5043807;28;20045;-36
2022/03/28 06:17:46;;;;;;;13.13;9.43;;;5.40;99.90;;;;;;5029054;28;20072;-36
2022/03/28 06:20:13;;;;;;;10.43;7.90;;;5.50;99.90;;;;;;5049517;28;20060;-35
2022/03/28 06:22:40;;;;;;;11.07;7.03;;;5.40;99.90;;;;;;5042218;28;20049;-32
2022/03/28 06:25:07;;;;;;;7.53;6.40;;;5.50;99.90;;;;;;5044118;28;20669;-33
2022/03/28 06:27:33;;;;;;;7.90;6.43;;;5.40;99.90;;;;;;5036570;28;20036;-35
2022/03/28 06:29:58;;;;;;;10.07;6.13;;;5.50;99.90;;;;;;5054791;28;20044;-32
2022/03/28 06:32:24;;;;;;;10.87;7.13;;;5.50;99.90;;;;;;5054690;28;20503;-35
2022/03/28 06:34:52;;;;;;;11.03;7.47;;;5.50;99.90;;;;;;5047121;28;20128;-35
2022/03/28 06:37:22;;;;;;;11.20;7.50;;;5.50;99.90;;;;;;5035043;28;20503;-33
2022/03/28 06:39:47;;;;;;;13.13;7.57;;;5.60;99.90;;;;;;5054181;28;20145;-32
2022/03/28 06:42:13;;;;;;;11.13;7.53;;;5.60;99.90;;;;;;5055126;28;20080;-33
2022/03/28 06:44:39;;;;;;;9.63;7.47;;;5.60;99.90;;;;;;5054624;28;20048;-34
2022/03/28 06:47:05;;;;;;;11.43;8.03;;;5.60;99.90;;;;;;5040379;28;20041;-35
2022/03/28 06:49:32;;;;;;;11.90;8.60;;;5.60;99.90;;;;;;5056223;28;20087;-35
2022/03/28 06:51:58;;;;;;;12.60;8.43;;;5.70;99.90;;;;;;5053690;28;20044;-34
2022/03/28 06:54:24;;;;;;;12.87;9.13;;;5.70;99.90;;;;;;5052923;28;20037;-32
2022/03/28 06:56:50;;;;;;;11.97;9.17;;;5.70;99.90;;;;;;5039078;28;20461;-35
2022/03/28 06:59:16;;;;;;;13.73;8.40;;;5.70;99.90;;;;;;5057455;28;20044;-35
2022/03/28 07:01:42;;;;;;;12.33;8.80;;;5.70;99.90;;;;;;5060329;28;20135;-33
2022/03/28 07:04:11;;;;;;;17.93;8.57;;;5.70;99.90;;;;;;5049660;28;21492;-35
2022/03/28 07:06:38;;;;;;;11.93;8.37;;;5.80;99.90;;;;;;5044552;28;20113;-35
2022/03/28 07:09:04;;;;;;;12.07;8.73;;;5.80;99.90;;;;;;5061065;28;20052;-34
2022/03/28 07:11:33;;;;;;;12.57;8.53;;;5.80;99.90;;;;;;5045939;28;20045;-35
2022/03/28 07:13:59;;;;;;;13.57;8.70;;;5.80;99.90;;;;;;5040480;28;20152;-32
2022/03/28 07:16:25;;;;;;;14.00;9.30;;;5.80;99.90;;;;;;5031411;28;20136;-34
2022/03/28 07:18:51;;;;;;;12.33;8.73;;;5.90;99.90;;;;;;5059072;28;20090;-32
2022/03/28 07:21:16;;;;;;;12.53;8.27;;;5.90;99.90;;;;;;5062819;28;20041;-32
2022/03/28 07:23:43;;;;;;;12.73;7.77;;;5.90;99.90;;;;;;5040956;28;20053;-35
2022/03/28 07:26:10;;;;;;;13.07;8.03;;;5.90;99.90;;;;;;5034585;28;20172;-36
2022/03/28 07:28:39;;;;;;;10.43;7.17;;;5.90;99.90;;;;;;5033975;28;20179;-35
2022/03/28 07:31:08;;;;;;;10.50;8.20;;;6.00;99.90;;;;;;5043302;28;20118;-34
2022/03/28 07:33:43;;;;;;;16.43;8.23;;;6.10;99.90;;;;;;5042216;28;20064;-35
2022/03/28 07:36:09;;;;;;;13.50;8.40;;;6.10;99.90;;;;;;5055458;28;20052;-36
2022/03/28 07:38:36;;;;;;;13.47;8.73;;;6.10;99.90;;;;;;5057579;28;20504;-36
2022/03/28 07:41:03;;;;;;;10.03;7.93;;;6.10;99.90;;;;;;5062989;28;20076;-35
2022/03/28 07:43:29;;;;;;;12.53;8.63;;;6.10;99.90;;;;;;5065626;28;20071;-34
2022/03/28 07:45:56;;;;;;;11.30;8.47;;;6.20;99.90;;;;;;5059982;28;20504;-32
2022/03/28 07:48:22;;;;;;;11.73;8.20;;;6.20;99.90;;;;;;5032273;28;20049;-34
2022/03/28 07:50:49;;;;;;;14.73;8.73;;;6.20;99.90;;;;;;5065931;28;20516;-36
2022/03/28 07:53:15;;;;;;;12.90;8.73;;;6.30;99.90;;;;;;5067383;28;20045;-34
2022/03/28 07:55:42;;;;;;;11.83;8.73;;;6.30;99.90;;;;;;5046308;28;20041;-34
2022/03/28 07:58:09;;;;;;;10.90;9.07;;;6.30;99.90;;;;;;5045772;28;20049;-33
2022/03/28 08:00:35;;;;;;;13.53;9.00;;;6.20;99.90;;;;;;5055865;28;20101;-34
2022/03/28 08:03:01;;;;;;;13.67;8.97;;;6.40;99.90;;;;;;5045997;28;20501;-34
2022/03/28 08:05:28;;;;;;;12.27;8.47;;;6.40;99.90;;;;;;5052495;28;20033;-34
2022/03/28 08:07:54;;;;;;;14.27;8.77;;;6.50;99.90;;;;;;5049595;28;20514;-35
2022/03/28 08:10:24;;;;;;;13.23;8.43;;;6.30;99.90;;;;;;5058910;28;20045;-35
2022/03/28 08:12:50;;;;;;;11.03;9.03;;;6.50;99.90;;;;;;5043817;28;20557;-36
2022/03/28 08:15:17;;;;;;;12.80;8.83;;;6.50;99.90;;;;;;5049417;28;20056;-37
2022/03/28 08:17:43;;;;;;;15.47;9.13;;;6.50;99.90;;;;;;5029914;28;20450;-33
2022/03/28 08:20:10;;;;;;;12.57;8.90;;;6.60;99.90;;;;;;5065585;28;20060;-35
2022/03/28 08:22:44;;;;;;;12.50;8.93;;;6.60;99.90;;;;;;5065282;28;20050;-34
2022/03/28 08:25:10;;;;;;;12.87;9.30;;;6.60;99.90;;;;;;5050474;28;20130;-33
2022/03/28 08:27:35;;;;;;;13.10;8.90;;;6.70;99.90;;;;;;5038964;28;20563;-32
2022/03/28 08:30:02;;;;;;;15.37;9.73;;;6.70;99.90;;;;;;5056061;28;20041;-32
2022/03/28 08:32:28;;;;;;;16.77;9.97;;;6.70;99.90;;;;;;5064469;28;20503;-35
2022/03/28 08:34:54;;;;;;;13.80;9.73;;;6.70;99.90;;;;;;5065591;28;20063;-35
2022/03/28 08:37:21;;;;;;;13.40;9.43;;;6.70;99.90;;;;;;5048503;28;20127;-35
2022/03/28 08:39:49;;;;;;;17.30;10.30;;;6.80;99.90;;;;;;5062209;28;20053;-31
2022/03/28 08:42:16;;;;;;;15.83;10.93;;;6.80;99.90;;;;;;5045814;28;20490;-32
2022/03/28 08:44:42;;;;;;;17.40;12.27;;;6.80;99.90;;;;;;5045029;28;20110;-32
2022/03/28 08:47:09;;;;;;;19.30;12.10;;;6.90;99.90;;;;;;5029653;28;21059;-33
2022/03/28 08:49:37;;;;;;;16.93;11.57;;;6.90;99.90;;;;;;5056288;28;20096;-33
2022/03/28 08:52:05;;;;;;;18.13;11.93;;;7.00;99.90;;;;;;5063634;28;20045;-35
2022/03/28 08:54:31;;;;;;;17.63;11.67;;;7.00;99.90;;;;;;5051847;28;20052;-33
2022/03/28 08:56:57;;;;;;;15.17;11.73;;;7.10;99.90;;;;;;5034151;28;20055;-35
2022/03/28 08:59:23;;;;;;;15.53;12.43;;;7.00;99.90;;;;;;5062880;28;20040;-35
2022/03/28 09:01:50;;;;;;;17.87;13.40;;;7.00;99.90;;;;;;5043077;28;20358;-32
2022/03/28 09:04:16;;;;;;;20.13;12.93;;;7.10;99.90;;;;;;5044342;28;20528;-34
2022/03/28 09:06:43;;;;;;;21.07;14.00;;;7.10;99.90;;;;;;5033298;28;20540;-35
2022/03/28 09:09:24;;;;;;;20.00;14.07;;;7.10;99.90;;;;;;5044717;28;20115;-35
2022/03/28 09:11:55;;;;;;;18.43;14.40;;;7.20;99.90;;;;;;5044793;28;20076;-35
2022/03/28 09:14:32;;;;;;;17.40;13.40;;;7.20;99.90;;;;;;5061808;28;20475;-34
2022/03/28 09:17:13;;;;;;;19.50;14.30;;;7.30;99.90;;;;;;5049054;28;20037;-35
2022/03/28 09:20:00;;;;;;;19.50;14.52;;;7.20;99.90;;;;;;5063832;28;20053;-36
2022/03/28 09:22:35;;;;;;;21.00;14.53;;;7.30;99.90;;;;;;5064096;28;20037;-34
2022/03/28 09:25:07;;;;;;;21.27;14.77;;;7.40;99.90;;;;;;5044560;28;20121;-32
2022/03/28 09:27:35;;;;;;;24.45;15.05;;;7.40;99.90;;;;;;5026663;28;20049;-33
2022/03/28 09:30:05;;;;;;;17.17;13.97;;;7.50;99.90;;;;;;5043305;28;20048;-32
2022/03/28 09:32:42;;;;;;;19.83;14.90;;;7.50;99.90;;;;;;5042294;28;20102;-36
2022/03/28 09:35:21;;;;;;;20.37;15.37;;;7.50;99.90;;;;;;5045048;28;20412;-36
2022/03/28 09:38:02;;;;;;;20.67;14.50;;;7.60;99.90;;;;;;5036588;28;20520;-36
2022/03/28 09:40:39;;;;;;;22.88;14.90;;;7.60;99.90;;;;;;5053134;28;20037;-34
2022/03/28 09:43:18;;;;;;;21.87;14.93;;;7.60;99.90;;;;;;5044780;28;20057;-34
2022/03/28 09:45:50;;;;;;;19.47;14.17;;;7.70;99.90;;;;;;5061697;28;20157;-35
2022/03/28 09:48:19;;;;;;;21.17;14.43;;;7.70;99.90;;;;;;5048150;28;20052;-34
2022/03/28 09:50:48;;;;;;;20.67;14.73;;;7.70;99.90;;;;;;5044358;28;20057;-34
2022/03/28 09:53:25;;;;;;;21.17;14.00;;;7.80;99.90;;;;;;5056680;28;20197;-35
2022/03/28 09:55:54;;;;;;;19.33;13.83;;;7.90;99.90;;;;;;5049321;28;20083;-36
2022/03/28 09:58:46;;;;;;;22.43;15.40;;;7.80;99.90;;;;;;5032431;28;20044;-34
2022/03/28 10:01:16;;;;;;;20.65;14.32;;;7.90;99.90;;;;;;5051917;28;20284;-36
2022/03/28 10:03:45;;;;;;;18.77;14.77;;;7.90;99.90;;;;;;5044384;28;20041;-34
2022/03/28 10:06:11;;;;;;;22.90;15.70;;;8.10;99.90;;;;;;5044177;28;20045;-33
2022/03/28 10:08:38;;;;;;;22.10;14.83;;;8.10;99.90;;;;;;5054461;28;20576;-33
2022/03/28 10:11:05;;;;;;;22.87;14.67;;;8.10;99.90;;;;;;5050812;28;20051;-35
2022/03/28 10:13:31;;;;;;;19.23;14.30;;;8.20;99.90;;;;;;5041837;28;20111;-34
2022/03/28 10:15:58;;;;;;;19.40;15.30;;;8.20;99.90;;;;;;5050514;28;20040;-35
2022/03/28 10:18:31;;;;;;;21.53;15.33;;;8.30;99.90;;;;;;5027778;28;20064;-36
2022/03/28 10:21:00;;;;;;;21.23;13.90;;;8.30;99.90;;;;;;5061991;28;20131;-33
2022/03/28 10:23:34;;;;;;;17.90;14.27;;;8.40;99.90;;;;;;5061102;28;20288;-33
2022/03/28 10:26:02;;;;;;;22.27;15.03;;;8.40;99.90;;;;;;5051161;28;20416;-34
2022/03/28 10:28:28;;;;;;;21.10;15.20;;;8.50;99.90;;;;;;5027160;28;20051;-36
2022/03/28 10:31:23;;;;;;;23.70;14.50;;;8.50;99.90;;;;;;5043444;28;20044;-35
2022/03/28 10:33:54;;;;;;;17.67;14.13;;;8.50;99.90;;;;;;5057684;28;20299;-35
2022/03/28 10:36:27;;;;;;;21.37;14.77;;;8.60;99.90;;;;;;5050605;28;20086;-36
2022/03/28 10:38:57;;;;;;;17.93;14.30;;;8.70;99.90;;;;;;5045403;28;20619;-36
2022/03/28 10:41:26;;;;;;;20.27;14.70;;;8.70;99.90;;;;;;5047436;28;20060;-35
2022/03/28 10:44:01;;;;;;;18.87;14.43;;;8.80;99.90;;;;;;5042913;28;20041;-34
2022/03/28 10:46:34;;;;;;;21.27;14.80;;;8.90;99.90;;;;;;5029908;28;20469;-35
2022/03/28 10:49:01;;;;;;;17.33;13.90;;;8.90;99.90;;;;;;5048721;28;20518;-36
2022/03/28 10:51:32;;;;;;;18.80;14.23;;;9.00;99.90;;;;;;5051647;28;20045;-35
2022/03/28 10:54:05;;;;;;;21.93;14.33;;;9.10;99.90;;;;;;5050798;28;20037;-35
2022/03/28 10:56:36;;;;;;;18.37;13.80;;;9.10;99.90;;;;;;5035491;28;20847;-35
2022/03/28 10:59:06;;;;;;;19.98;15.05;;;9.10;99.90;;;;;;5049074;28;20036;-36
2022/03/28 11:01:40;;;;;;;20.47;14.90;;;9.20;99.90;;;;;;5052099;28;20113;-34
2022/03/28 11:04:12;;;;;;;19.47;14.67;;;9.20;99.90;;;;;;5047877;28;20053;-36
2022/03/28 11:07:01;;;;;;;22.03;14.00;;;9.10;99.90;;;;;;5044164;28;20581;-36
2022/03/28 11:09:34;;;;;;;18.20;13.87;;;9.20;99.90;;;;;;5062228;28;20052;-35
2022/03/28 11:12:09;;;;;;;19.50;14.00;;;9.10;99.90;;;;;;5042999;28;20055;-36
2022/03/28 11:14:50;;;;;;;20.37;14.40;;;9.10;99.90;;;;;;5044172;28;20044;-36
2022/03/28 11:17:26;;;;;;;19.77;14.85;;;9.10;99.90;;;;;;5043064;28;20059;-37
2022/03/28 11:20:18;;;;;;;17.73;13.47;;;9.20;99.90;;;;;;5063257;28;20144;-36
2022/03/28 11:22:49;;;;;;;17.47;14.03;;;9.30;99.90;;;;;;5053196;28;20408;-35
2022/03/28 11:25:42;;;;;;;19.97;13.70;;;9.40;99.90;;;;;;5051736;28;20041;-35
2022/03/28 11:28:11;;;;;;;20.70;13.80;;;9.50;99.90;;;;;;5047019;28;20143;-35
2022/03/28 11:30:49;;;;;;;18.30;14.23;;;9.60;99.90;;;;;;5062859;28;20053;-35
2022/03/28 11:33:35;;;;;;;17.17;13.23;;;9.60;99.90;;;;;;5054569;28;20106;-35
2022/03/28 11:36:12;;;;;;;18.57;14.30;;;9.70;99.90;;;;;;5062114;28;20068;-37
2022/03/28 11:38:56;;;;;;;17.23;13.47;;;9.80;99.90;;;;;;5056008;28;20457;-34
2022/03/28 11:41:26;;;;;;;20.03;14.50;;;9.90;99.90;;;;;;5046366;28;20056;-34
2022/03/28 11:43:54;;;;;;;20.33;15.00;;;10.00;99.90;;;;;;5042294;28;20041;-36
2022/03/28 11:46:26;;;;;;;16.67;14.13;;;10.00;99.90;;;;;;5032420;28;20122;-34
2022/03/28 11:48:59;;;;;;;21.47;14.50;;;10.10;99.90;;;;;;5052869;28;20049;-38
2022/03/28 11:51:28;;;;;;;17.70;13.83;;;10.20;99.90;;;;;;5024531;28;20049;-36
2022/03/28 11:53:56;;;;;;;19.13;13.67;;;10.30;99.90;;;;;;5042456;28;20134;-33
2022/03/28 11:56:27;;;;;;;18.10;13.30;;;10.30;99.90;;;;;;5032019;28;20057;-37
2022/03/28 11:59:04;;;;;;;;;;;10.40;99.90;;;;;;5057147;28;20287;-36
2022/03/28 12:01:31;;;;;;;20.53;13.23;;;10.50;99.90;;;;;;5044685;28;19925;-36
2022/03/28 12:03:56;;;;;;;14.97;12.50;;;10.50;99.90;;;;;;5024258;28;20049;-35
2022/03/28 12:06:38;;;;;;;19.27;13.67;;;10.60;99.90;;;;;;5030869;28;20040;-38
2022/03/28 12:09:06;;;;;;;16.45;13.75;;;10.60;99.90;;;;;;5058416;28;20525;-36
2022/03/28 12:11:34;;;;;;;16.87;12.70;;;10.60;99.90;;;;;;5045235;28;20057;-33
2022/03/28 12:14:00;;;;;;;18.43;14.43;;;10.70;99.90;;;;;;5042203;28;20053;-35
2022/03/28 12:16:25;;;;;;;18.50;13.67;;;10.80;99.90;;;;;;5035230;28;20043;-34
2022/03/28 12:18:53;;;;;;;19.57;13.27;;;10.80;99.90;;;;;;5058688;28;20465;-33
2022/03/28 12:21:20;;;;;;;20.60;13.53;;;10.90;99.90;;;;;;5062664;28;20052;-35
2022/03/28 12:23:46;;;;;;;18.93;13.13;;;10.90;99.90;;;;;;5050011;28;20106;-36
2022/03/28 12:26:12;;;;;;;19.77;14.03;;;11.00;99.90;;;;;;5043428;28;20399;-36
2022/03/28 12:28:43;;;;;;;19.07;13.50;;;11.00;99.90;;;;;;5049814;28;20459;-35
2022/03/28 12:31:09;;;;;;;22.33;13.60;;;11.10;99.90;;;;;;5066197;28;20048;-36
2022/03/28 12:33:38;;;;;;;17.48;13.30;;;11.10;99.90;;;;;;5065096;28;20392;-33
2022/03/28 12:36:10;;;;;;;15.98;13.23;;;11.20;99.90;;;;;;5065260;28;20537;-35
2022/03/28 12:38:56;;;;;;;18.20;13.43;;;11.20;99.90;;;;;;5057213;28;20056;-33
2022/03/28 12:41:22;;;;;;;20.67;13.48;;;11.20;99.90;;;;;;5048120;28;20475;-33
2022/03/28 12:43:49;;;;;;;16.88;13.27;;;11.20;99.90;;;;;;5045279;28;20088;-37
2022/03/28 12:46:18;;;;;;;15.88;13.20;;;11.30;99.90;;;;;;5055779;28;20056;-36
2022/03/28 12:48:47;;;;;;;20.35;14.07;;;11.30;99.90;;;;;;5055258;28;20052;-36
2022/03/28 12:51:28;;;;;;;17.42;13.48;;;11.30;99.90;;;;;;5046071;28;20049;-33